createdAt,value
2019-01-25T00:00:35.292Z,32.27
2019-01-25T00:03:09.822Z,33.57
2019-01-25T00:05:35.971Z,32.80
2019-01-25T00:08:05.389Z,31.57
2019-01-25T00:10:34.185Z,34.90
2019-01-25T00:13:03.020Z,33.10
2019-01-25T00:15:31.492Z,33.07
2019-01-25T00:18:00.026Z,31.63
2019-01-25T00:20:28.584Z,34.73
2019-01-25T00:22:57.065Z,34.27
2019-01-25T00:25:25.542Z,35.20
2019-01-25T00:27:54.062Z,32.93
2019-01-25T00:30:23.119Z,32.03
2019-01-25T00:32:51.637Z,34.23
2019-01-25T00:35:20.122Z,34.33
2019-01-25T00:37:48.678Z,35.23
2019-01-25T00:40:20.013Z,35.70
2019-01-25T00:42:48.522Z,35.17
2019-01-25T00:45:17.531Z,34.03
2019-01-25T00:47:46.091Z,32.93
2019-01-25T00:50:21.712Z,33.57
2019-01-25T00:52:50.733Z,33.10
2019-01-25T00:55:19.265Z,33.30
2019-01-25T00:57:47.945Z,33.47
2019-01-25T01:00:22.300Z,33.73
2019-01-25T01:02:51.215Z,34.40
2019-01-25T01:05:20.313Z,33.17
2019-01-25T01:07:51.298Z,34.07
2019-01-25T01:10:21.107Z,32.83
2019-01-25T01:12:50.126Z,34.70
2019-01-25T01:15:19.962Z,33.83
2019-01-25T01:17:48.668Z,34.07
2019-01-25T01:20:18.894Z,34.57
2019-01-25T01:22:47.426Z,33.60
2019-01-25T01:25:16.046Z,32.07
2019-01-25T01:27:44.581Z,35.37
2019-01-25T01:30:16.130Z,35.47
2019-01-25T01:32:44.687Z,34.67
2019-01-25T01:35:13.512Z,33.53
2019-01-25T01:37:42.057Z,35.37
2019-01-25T01:40:21.701Z,35.30
2019-01-25T01:42:46.622Z,38.87
2019-01-25T01:45:15.909Z,35.90
2019-01-25T01:47:44.430Z,38.50
2019-01-25T01:50:15.458Z,35.67
2019-01-25T01:52:44.073Z,37.80
2019-01-25T01:55:12.765Z,35.77
2019-01-25T01:57:41.216Z,36.30
2019-01-25T02:00:12.723Z,37.90
2019-01-25T02:02:41.277Z,37.87
2019-01-25T02:05:09.962Z,35.67
2019-01-25T02:07:38.550Z,37.73
2019-01-25T02:10:13.221Z,36.20
2019-01-25T02:12:41.752Z,37.00
2019-01-25T02:15:13.718Z,38.30
2019-01-25T02:17:42.279Z,37.73
2019-01-25T02:20:13.801Z,35.47
2019-01-25T02:22:42.254Z,38.00
2019-01-25T02:25:10.714Z,36.13
2019-01-25T02:27:39.170Z,36.63
2019-01-25T02:30:10.720Z,39.97
2019-01-25T02:32:39.198Z,37.33
2019-01-25T02:35:09.299Z,37.33
2019-01-25T02:37:37.825Z,38.50
2019-01-25T02:40:09.278Z,38.07
2019-01-25T02:42:37.821Z,38.40
2019-01-25T02:45:09.298Z,39.13
2019-01-25T02:47:37.782Z,34.30
2019-01-25T02:50:17.143Z,37.60
2019-01-25T02:52:45.693Z,36.60
2019-01-25T02:55:15.394Z,37.50
2019-01-25T02:57:44.003Z,37.33
2019-01-25T03:00:23.547Z,38.67
2019-01-25T03:02:53.144Z,37.77
2019-01-25T03:05:23.640Z,37.03
2019-01-25T03:07:52.680Z,37.80
2019-01-25T03:10:28.443Z,35.93
2019-01-25T03:12:53.734Z,36.00
2019-01-25T03:15:24.884Z,36.93
2019-01-25T03:17:53.600Z,37.20
2019-01-25T03:20:22.527Z,37.80
2019-01-25T03:22:51.067Z,35.63
2019-01-25T03:25:25.494Z,37.87
2019-01-25T03:27:54.120Z,35.20
2019-01-25T03:30:25.332Z,37.23
2019-01-25T03:32:53.916Z,37.20
2019-01-25T03:35:25.166Z,38.23
2019-01-25T03:37:54.049Z,35.93
2019-01-25T03:40:27.420Z,38.17
2019-01-25T03:42:58.157Z,37.80
2019-01-25T03:45:26.879Z,36.43
2019-01-25T03:47:55.345Z,36.47
2019-01-25T03:50:28.945Z,38.20
2019-01-25T03:52:57.855Z,33.53
2019-01-25T03:55:26.604Z,36.53
2019-01-25T03:57:55.232Z,37.10
2019-01-25T04:00:29.168Z,37.67
2019-01-25T04:02:57.805Z,37.27
2019-01-25T04:05:26.324Z,36.30
2019-01-25T04:07:55.472Z,37.17
2019-01-25T04:10:28.790Z,36.87
2019-01-25T04:12:57.411Z,37.77
2019-01-25T04:15:28.622Z,36.20
2019-01-25T04:17:57.120Z,36.13
2019-01-25T04:20:25.756Z,37.07
2019-01-25T04:22:54.580Z,37.20
2019-01-25T04:25:23.976Z,36.43
2019-01-25T04:27:53.310Z,36.60
2019-01-25T04:30:27.000Z,37.60
2019-01-25T04:32:55.604Z,38.13
2019-01-25T04:35:24.177Z,37.57
2019-01-25T04:37:52.770Z,37.20
2019-01-25T04:40:22.007Z,34.47
2019-01-25T04:42:50.827Z,36.63
2019-01-25T04:45:21.242Z,36.57
2019-01-25T04:47:50.210Z,36.03
2019-01-25T04:50:21.030Z,37.27
2019-01-25T04:52:49.757Z,36.07
2019-01-25T04:55:23.868Z,37.53
2019-01-25T04:57:52.461Z,36.97
2019-01-25T05:00:23.488Z,38.30
2019-01-25T05:02:57.333Z,37.83
2019-01-25T05:05:26.098Z,37.07
2019-01-25T05:08:02.783Z,37.73
2019-01-25T05:10:31.257Z,37.23
2019-01-25T05:12:59.715Z,38.67
2019-01-25T05:15:28.751Z,38.07
2019-01-25T05:17:57.204Z,38.57
2019-01-25T05:20:25.668Z,38.13
2019-01-25T05:22:56.052Z,37.97
2019-01-25T05:25:26.238Z,35.53
2019-01-25T05:27:54.798Z,36.40
2019-01-25T05:30:24.553Z,38.67
2019-01-25T05:32:53.020Z,37.73
2019-01-25T05:35:21.493Z,37.57
2019-01-25T05:37:49.926Z,35.83
2019-01-25T05:40:26.455Z,36.63
2019-01-25T05:42:54.969Z,37.50
2019-01-25T05:45:23.451Z,36.77
2019-01-25T05:47:51.896Z,37.17
2019-01-25T05:50:20.480Z,37.87
2019-01-25T05:52:48.953Z,38.30
2019-01-25T05:55:22.236Z,39.37
2019-01-25T05:57:52.574Z,38.07
2019-01-25T06:00:25.659Z,37.43
2019-01-25T06:02:54.099Z,38.60
2019-01-25T06:05:22.539Z,37.57
2019-01-25T06:07:50.996Z,37.87
2019-01-25T06:10:19.421Z,38.27
2019-01-25T06:12:51.361Z,37.20
2019-01-25T06:15:19.832Z,37.53
2019-01-25T06:17:48.282Z,37.07
2019-01-25T06:20:16.895Z,37.13
2019-01-25T06:22:45.338Z,38.40
2019-01-25T06:25:13.766Z,38.37
2019-01-25T06:27:42.317Z,39.97
2019-01-25T06:30:16.852Z,37.07
2019-01-25T06:32:45.501Z,38.20
2019-01-25T06:35:14.005Z,37.67
2019-01-25T06:37:42.874Z,39.77
2019-01-25T06:40:15.799Z,39.93
2019-01-25T06:42:44.325Z,38.33
2019-01-25T06:45:13.301Z,39.97
2019-01-25T06:47:42.831Z,39.37
2019-01-25T06:50:13.371Z,39.73
2019-01-25T06:52:41.817Z,38.27
2019-01-25T06:55:10.419Z,37.97
2019-01-25T06:57:46.530Z,38.53
2019-01-25T07:00:18.893Z,39.40
2019-01-25T07:02:47.317Z,38.83
2019-01-25T07:05:15.769Z,40.20
2019-01-25T07:07:46.000Z,38.97
2019-01-25T07:10:17.533Z,41.33
2019-01-25T07:12:46.004Z,39.83
2019-01-25T07:15:16.354Z,41.57
2019-01-25T07:17:44.791Z,46.03
2019-01-25T07:20:15.416Z,45.97
2019-01-25T07:22:46.767Z,45.20
2019-01-25T07:25:16.374Z,46.60
2019-01-25T07:27:44.885Z,47.77
2019-01-25T07:30:17.090Z,50.17
2019-01-25T07:32:45.821Z,46.57
2019-01-25T07:35:14.319Z,49.70
2019-01-25T07:37:43.018Z,48.63
2019-01-25T07:40:12.397Z,53.10
2019-01-25T07:42:41.109Z,50.37
2019-01-25T07:45:12.145Z,52.13
2019-01-25T07:47:40.589Z,53.23
2019-01-25T07:50:11.239Z,52.47
2019-01-25T07:52:40.078Z,51.33
2019-01-25T07:55:10.583Z,53.53
2019-01-25T07:57:39.097Z,54.03
2019-01-25T08:00:10.664Z,54.10
2019-01-25T08:02:39.656Z,55.43
2019-01-25T08:05:10.710Z,56.17
2019-01-25T08:07:40.089Z,55.20
2019-01-25T08:10:20.153Z,53.67
2019-01-25T08:12:48.633Z,56.23
2019-01-25T08:15:20.175Z,53.30
2019-01-25T08:17:48.767Z,55.67
2019-01-25T08:20:17.302Z,54.63
2019-01-25T08:22:45.751Z,54.87
2019-01-25T08:25:14.344Z,53.13
2019-01-25T08:27:42.808Z,53.33
2019-01-25T08:30:14.491Z,53.83
2019-01-25T08:32:42.966Z,53.77
2019-01-25T08:35:13.150Z,50.60
2019-01-25T08:37:41.673Z,49.07
2019-01-25T08:40:15.058Z,53.20
2019-01-25T08:42:43.499Z,49.07
2019-01-25T08:45:14.755Z,50.50
2019-01-25T08:47:43.488Z,50.13
2019-01-25T08:50:25.156Z,52.13
2019-01-25T08:52:53.820Z,53.23
2019-01-25T08:55:22.612Z,50.83
2019-01-25T08:57:51.235Z,51.53
2019-01-25T09:00:22.648Z,52.23
2019-01-25T09:02:52.039Z,48.03
2019-01-25T09:05:21.640Z,51.60
2019-01-25T09:07:50.164Z,52.80
2019-01-25T09:10:20.848Z,50.93
2019-01-25T09:12:49.331Z,53.37
2019-01-25T09:15:23.712Z,50.00
2019-01-25T09:17:52.244Z,52.97
2019-01-25T09:20:22.311Z,53.10
2019-01-25T09:22:50.845Z,50.23
2019-01-25T09:25:19.734Z,49.13
2019-01-25T09:27:48.858Z,48.70
2019-01-25T09:30:19.899Z,51.10
2019-01-25T09:32:48.316Z,51.57
2019-01-25T09:35:17.084Z,52.50
2019-01-25T09:37:45.678Z,51.73
2019-01-25T09:40:25.105Z,49.80
2019-01-25T09:42:53.588Z,48.13
2019-01-25T09:45:22.572Z,48.40
2019-01-25T09:47:51.157Z,50.27
2019-01-25T09:50:21.922Z,49.37
2019-01-25T09:52:50.450Z,47.93
2019-01-25T09:55:24.294Z,48.90
2019-01-25T09:57:52.639Z,47.97
2019-01-25T10:00:24.396Z,46.30
2019-01-25T10:02:52.871Z,46.70
2019-01-25T10:05:21.418Z,46.07
2019-01-25T10:07:49.836Z,45.23
2019-01-25T10:10:19.047Z,48.40
2019-01-25T10:12:47.510Z,48.73
2019-01-25T10:15:23.940Z,48.77
2019-01-25T10:17:52.688Z,45.97
2019-01-25T10:20:21.276Z,45.77
2019-01-25T10:22:49.751Z,46.30
2019-01-25T10:25:18.380Z,46.27
2019-01-25T10:27:47.288Z,45.43
2019-01-25T10:30:19.324Z,42.97
2019-01-25T10:32:47.817Z,42.67
2019-01-25T10:35:16.393Z,43.33
2019-01-25T10:37:44.933Z,44.43
2019-01-25T10:40:18.663Z,42.47
2019-01-25T10:42:53.022Z,38.03
2019-01-25T10:45:23.279Z,36.37
2019-01-25T10:47:51.711Z,38.67
2019-01-25T10:50:20.223Z,36.83
2019-01-25T10:52:48.680Z,34.13
2019-01-25T10:55:17.263Z,35.77
2019-01-25T10:57:46.128Z,35.50
2019-01-25T11:00:17.471Z,36.50
2019-01-25T11:02:45.898Z,34.37
2019-01-25T11:05:17.594Z,34.97
2019-01-25T11:07:46.119Z,34.40
2019-01-25T11:10:14.684Z,33.63
2019-01-25T11:12:43.614Z,32.17
2019-01-25T11:15:17.541Z,34.63
2019-01-25T11:17:46.076Z,31.87
2019-01-25T11:20:23.697Z,32.73
2019-01-25T11:22:52.379Z,31.40
2019-01-25T11:25:29.791Z,33.03
2019-01-25T11:27:58.335Z,32.37
2019-01-25T11:30:26.819Z,32.40
2019-01-25T11:32:55.250Z,31.73
2019-01-25T11:35:23.755Z,29.40
2019-01-25T11:37:52.371Z,30.37
2019-01-25T11:40:23.852Z,30.93
2019-01-25T11:42:53.725Z,28.57
2019-01-25T11:45:22.704Z,28.70
2019-01-25T11:47:51.196Z,28.73
2019-01-25T11:50:21.336Z,29.23
2019-01-25T11:52:49.823Z,29.10
2019-01-25T11:55:19.603Z,28.23
2019-01-25T11:57:48.310Z,27.60
2019-01-25T12:00:25.934Z,30.07
2019-01-25T12:02:54.851Z,29.07
2019-01-25T12:05:25.037Z,31.50
2019-01-25T12:07:54.718Z,29.67
2019-01-25T12:10:28.327Z,28.87
2019-01-25T12:12:59.770Z,29.87
2019-01-25T12:15:28.194Z,29.50
2019-01-25T12:17:56.768Z,29.73
2019-01-25T12:20:30.045Z,28.77
2019-01-25T12:22:58.904Z,30.47
2019-01-25T12:25:27.341Z,30.50
2019-01-25T12:27:55.845Z,29.37
2019-01-25T12:30:37.567Z,31.27
2019-01-25T12:33:02.843Z,30.50
2019-01-25T12:35:34.240Z,30.43
2019-01-25T12:38:02.747Z,30.77
2019-01-25T12:40:31.356Z,30.23
2019-01-25T12:42:59.834Z,31.87
2019-01-25T12:45:30.200Z,29.77
2019-01-25T12:47:58.764Z,27.97
2019-01-25T12:50:39.084Z,29.73
2019-01-25T12:53:10.077Z,28.93
2019-01-25T12:55:38.657Z,29.87
2019-01-25T12:58:07.217Z,28.60
2019-01-25T13:00:35.743Z,31.80
2019-01-25T13:03:05.475Z,28.33
2019-01-25T13:05:33.977Z,31.13
2019-01-25T13:08:02.400Z,30.00
2019-01-25T13:10:30.940Z,29.23
2019-01-25T13:12:59.396Z,29.37
2019-01-25T13:15:27.820Z,30.20
2019-01-25T13:17:56.290Z,30.20
2019-01-25T13:20:31.683Z,30.07
2019-01-25T13:23:00.274Z,31.77
2019-01-25T13:25:28.716Z,30.40
2019-01-25T13:27:57.160Z,29.50
2019-01-25T13:30:30.489Z,29.70
2019-01-25T13:32:59.684Z,27.33
2019-01-25T13:35:28.268Z,27.27
2019-01-25T13:37:56.881Z,27.40
2019-01-25T13:40:27.049Z,27.67
2019-01-25T13:42:55.664Z,28.30
2019-01-25T13:45:25.059Z,26.43
2019-01-25T13:47:54.237Z,24.50
2019-01-25T13:50:30.271Z,23.43
2019-01-25T13:52:58.742Z,25.20
2019-01-25T13:55:27.331Z,24.20
2019-01-25T13:57:55.843Z,23.67
2019-01-25T14:00:27.648Z,21.97
2019-01-25T14:02:56.086Z,21.63
2019-01-25T14:05:24.595Z,24.27
2019-01-25T14:07:53.105Z,23.10
2019-01-25T14:10:26.950Z,22.97
2019-01-25T14:12:55.449Z,22.00
2019-01-25T14:15:24.062Z,22.13
2019-01-25T14:17:52.688Z,23.43
2019-01-25T14:20:27.209Z,24.23
2019-01-25T14:22:55.877Z,23.77
2019-01-25T14:25:24.468Z,22.67
2019-01-25T14:27:52.923Z,22.13
2019-01-25T14:30:39.305Z,24.73
2019-01-25T14:33:08.049Z,22.80
2019-01-25T14:35:36.815Z,22.13
2019-01-25T14:38:06.511Z,23.63
2019-01-25T14:40:35.001Z,19.73
2019-01-25T14:43:03.541Z,24.70
2019-01-25T14:45:32.034Z,21.60
2019-01-25T14:48:00.581Z,22.27
2019-01-25T14:50:33.421Z,21.93
2019-01-25T14:53:01.911Z,20.03
2019-01-25T14:55:30.436Z,20.57
2019-01-25T14:57:58.977Z,20.33
2019-01-25T15:00:27.525Z,21.37
2019-01-25T15:02:55.959Z,22.27
2019-01-25T15:05:24.448Z,20.20
2019-01-25T15:07:54.482Z,22.50
2019-01-25T15:10:24.997Z,22.57
2019-01-25T15:12:56.159Z,22.13
2019-01-25T15:15:24.588Z,20.83
2019-01-25T15:17:53.165Z,19.70
2019-01-25T15:20:24.071Z,21.67
2019-01-25T15:22:52.514Z,20.20
2019-01-25T15:25:21.022Z,21.33
2019-01-25T15:27:49.539Z,20.47
2019-01-25T15:30:21.113Z,19.87
2019-01-25T15:32:49.619Z,22.03
2019-01-25T15:35:20.097Z,22.63
2019-01-25T15:37:48.705Z,20.67
2019-01-25T15:40:19.679Z,23.00
2019-01-25T15:42:48.394Z,21.80
2019-01-25T15:45:18.877Z,21.60
2019-01-25T15:47:47.368Z,22.17
2019-01-25T15:50:21.467Z,22.77
2019-01-25T15:52:49.890Z,22.27
2019-01-25T15:55:19.497Z,22.43
2019-01-25T15:57:48.107Z,22.20
2019-01-25T16:00:18.973Z,23.93
2019-01-25T16:02:47.416Z,24.83
2019-01-25T16:05:18.521Z,24.97
2019-01-25T16:07:47.211Z,23.60
2019-01-25T16:10:20.852Z,21.90
2019-01-25T16:12:49.827Z,24.70
2019-01-25T16:15:21.287Z,22.40
2019-01-25T16:17:50.935Z,22.23
2019-01-25T16:20:19.682Z,23.00
2019-01-25T16:22:50.107Z,21.87
2019-01-25T16:25:24.377Z,22.67
2019-01-25T16:27:52.807Z,22.83
2019-01-25T16:30:27.219Z,22.90
2019-01-25T16:32:55.692Z,22.07
2019-01-25T16:35:24.288Z,22.87
2019-01-25T16:37:52.764Z,22.20
2019-01-25T16:40:24.200Z,23.37
2019-01-25T16:42:52.650Z,22.77
2019-01-25T16:45:38.680Z,23.03
2019-01-25T16:48:09.628Z,23.77
2019-01-25T16:50:39.735Z,22.80
2019-01-25T16:53:09.978Z,23.70
2019-01-25T16:55:38.504Z,21.47
2019-01-25T16:58:07.490Z,23.47
2019-01-25T17:00:43.664Z,26.20
2019-01-25T17:03:12.302Z,23.47
2019-01-25T17:05:40.820Z,24.13
2019-01-25T17:08:09.302Z,23.60
2019-01-25T17:10:37.958Z,24.63
2019-01-25T17:13:06.545Z,24.03
2019-01-25T17:15:35.036Z,24.63
2019-01-25T17:18:03.606Z,24.33
2019-01-25T17:20:32.152Z,24.13
2019-01-25T17:23:00.607Z,23.30
2019-01-25T17:25:29.112Z,23.50
2019-01-25T17:27:57.562Z,23.47
2019-01-25T17:30:28.837Z,24.20
2019-01-25T17:32:59.112Z,22.17
2019-01-25T17:35:27.635Z,24.17
2019-01-25T17:37:56.223Z,25.20
2019-01-25T17:40:33.691Z,24.20
2019-01-25T17:43:03.191Z,23.27
2019-01-25T17:45:32.680Z,24.73
2019-01-25T17:48:01.204Z,23.67
2019-01-25T17:50:29.632Z,22.33
2019-01-25T17:52:58.237Z,25.30
2019-01-25T17:55:26.668Z,24.47
2019-01-25T17:57:55.109Z,23.87
2019-01-25T18:00:31.278Z,24.60
2019-01-25T18:02:59.819Z,25.13
2019-01-25T18:05:28.519Z,24.40
2019-01-25T18:07:57.020Z,23.83
2019-01-25T18:10:26.345Z,25.10
2019-01-25T18:12:55.130Z,23.73
2019-01-25T18:15:25.080Z,24.67
2019-01-25T18:17:53.621Z,25.20
2019-01-25T18:20:25.571Z,25.90
2019-01-25T18:22:54.081Z,24.60
2019-01-25T18:25:41.175Z,25.33
2019-01-25T18:28:12.665Z,24.80
2019-01-25T18:30:44.158Z,24.23
2019-01-25T18:33:12.642Z,24.93
2019-01-25T18:35:41.061Z,24.40
2019-01-25T18:38:09.589Z,24.67
2019-01-25T18:40:38.136Z,25.30
2019-01-25T18:43:06.702Z,26.00
2019-01-25T18:45:35.135Z,24.83
2019-01-25T18:48:03.577Z,25.70
2019-01-25T18:50:32.020Z,24.73
2019-01-25T18:53:00.441Z,26.93
2019-01-25T18:55:28.926Z,26.73
2019-01-25T18:57:57.415Z,24.77
2019-01-25T19:00:26.157Z,25.50
2019-01-25T19:02:55.006Z,26.63
2019-01-25T19:05:23.512Z,25.40
2019-01-25T19:07:52.003Z,25.90
2019-01-25T19:10:28.818Z,27.00
2019-01-25T19:12:57.400Z,24.73
2019-01-25T19:15:32.599Z,26.33
2019-01-25T19:18:01.066Z,26.47
2019-01-25T19:20:29.627Z,22.50
2019-01-25T19:22:58.088Z,26.23
2019-01-25T19:25:26.544Z,25.80
2019-01-25T19:27:54.996Z,25.33
2019-01-25T19:30:35.425Z,24.87
2019-01-25T19:33:04.846Z,25.60
2019-01-25T19:35:33.330Z,24.90
2019-01-25T19:38:01.865Z,24.70
2019-01-25T19:40:35.187Z,25.57
2019-01-25T19:43:04.462Z,25.17
2019-01-25T19:45:32.989Z,24.30
2019-01-25T19:48:01.454Z,23.20
2019-01-25T19:50:29.997Z,23.87
2019-01-25T19:52:58.493Z,25.73
2019-01-25T19:55:29.927Z,24.63
2019-01-25T19:58:00.581Z,25.30
2019-01-25T20:00:35.273Z,26.83
2019-01-25T20:03:04.133Z,27.13
2019-01-25T20:05:33.295Z,29.47
2019-01-25T20:08:01.745Z,28.23
2019-01-25T20:10:30.298Z,27.27
2019-01-25T20:12:58.821Z,26.60
2019-01-25T20:15:28.235Z,26.30
2019-01-25T20:17:56.669Z,25.83
2019-01-25T20:20:28.169Z,27.90
2019-01-25T20:22:56.956Z,27.47
2019-01-25T20:25:25.613Z,28.77
2019-01-25T20:27:54.202Z,29.63
2019-01-25T20:30:25.675Z,28.90
2019-01-25T20:32:54.254Z,30.07
2019-01-25T20:35:28.139Z,30.13
2019-01-25T20:37:56.782Z,29.90
2019-01-25T20:40:28.131Z,29.10
2019-01-25T20:42:56.570Z,27.70
2019-01-25T20:45:28.048Z,28.57
2019-01-25T20:47:57.146Z,28.03
2019-01-25T20:50:28.110Z,28.27
2019-01-25T20:52:56.897Z,28.60
2019-01-25T20:55:26.086Z,27.97
2019-01-25T20:57:55.867Z,28.13
2019-01-25T21:00:32.547Z,28.13
2019-01-25T21:03:01.370Z,26.63
2019-01-25T21:05:30.128Z,29.47
2019-01-25T21:07:58.558Z,26.90
2019-01-25T21:10:27.550Z,27.77
2019-01-25T21:12:56.131Z,28.20
2019-01-25T21:15:35.025Z,29.33
2019-01-25T21:17:59.773Z,29.60
2019-01-25T21:20:40.155Z,29.90
2019-01-25T21:23:08.792Z,30.57
2019-01-25T21:25:37.754Z,28.60
2019-01-25T21:28:06.738Z,29.50
2019-01-25T21:30:37.025Z,29.47
2019-01-25T21:33:10.884Z,29.33
2019-01-25T21:35:39.304Z,28.93
2019-01-25T21:38:07.895Z,27.90
2019-01-25T21:40:36.501Z,28.83
2019-01-25T21:43:05.554Z,28.47
2019-01-25T21:45:42.669Z,27.67
2019-01-25T21:48:08.543Z,25.97
2019-01-25T21:50:40.309Z,26.60
2019-01-25T21:53:08.819Z,27.10
2019-01-25T21:55:37.414Z,28.43
2019-01-25T21:58:06.204Z,27.57
2019-01-25T22:00:35.989Z,28.80
2019-01-25T22:03:05.288Z,29.07
2019-01-25T22:05:33.739Z,27.63
2019-01-25T22:08:02.247Z,26.83
2019-01-25T22:10:36.414Z,26.30
2019-01-25T22:13:05.811Z,26.23
2019-01-25T22:15:34.680Z,24.80
2019-01-25T22:18:03.458Z,24.83
2019-01-25T22:20:32.441Z,23.07
2019-01-25T22:23:00.861Z,23.30
2019-01-25T22:25:29.544Z,21.83
2019-01-25T22:27:58.059Z,19.93
2019-01-25T22:30:29.150Z,18.87
2019-01-25T22:32:57.728Z,20.37
2019-01-25T22:35:26.270Z,21.97
2019-01-25T22:37:55.154Z,20.17
2019-01-25T22:40:26.117Z,21.40
2019-01-25T22:42:54.652Z,19.87
2019-01-25T22:45:25.621Z,19.97
2019-01-25T22:47:54.155Z,19.40
2019-01-25T22:50:27.850Z,20.30
2019-01-25T22:52:56.394Z,19.30
2019-01-25T22:55:25.863Z,19.57
2019-01-25T22:57:54.568Z,20.20
2019-01-25T23:00:49.747Z,20.40
2019-01-25T23:03:21.559Z,20.40
2019-01-25T23:06:04.770Z,20.37
2019-01-25T23:08:33.306Z,20.83
2019-01-25T23:11:01.706Z,20.93
2019-01-25T23:13:30.160Z,19.60
2019-01-25T23:16:06.168Z,18.93
2019-01-25T23:18:28.782Z,17.93
2019-01-25T23:20:57.245Z,17.57
2019-01-25T23:23:25.679Z,15.27
2019-01-25T23:25:54.097Z,16.93
2019-01-25T23:28:22.566Z,16.63
2019-01-25T23:30:50.977Z,16.17
2019-01-25T23:33:19.420Z,16.20
2019-01-25T23:35:48.276Z,14.37
2019-01-25T23:38:16.734Z,15.70
2019-01-25T23:40:45.181Z,16.33
2019-01-25T23:43:13.639Z,16.17
2019-01-25T23:45:42.042Z,14.73
2019-01-25T23:48:10.486Z,15.73
2019-01-25T23:50:38.943Z,16.63
2019-01-25T23:53:07.380Z,15.87
2019-01-25T23:55:35.803Z,15.93
2019-01-25T23:58:04.650Z,15.80
